createdAt,value
2019-01-24T17:28:32.722Z,57.53
2019-01-24T17:31:02.558Z,58.92
2019-01-24T17:33:32.528Z,61.28
2019-01-24T17:36:02.482Z,60.33
2019-01-24T17:38:32.855Z,60.83
2019-01-24T17:41:10.397Z,60.58
2019-01-24T17:43:40.567Z,61.40
2019-01-24T17:46:10.575Z,60.88
2019-01-24T17:48:40.573Z,60.03
2019-01-24T17:51:10.385Z,60.48
2019-01-24T17:53:40.254Z,62.40
2019-01-24T17:56:10.465Z,61.68
2019-01-24T17:58:40.426Z,59.27
2019-01-24T18:01:10.406Z,61.10
2019-01-24T18:03:40.369Z,62.00
2019-01-24T18:06:10.320Z,59.95
2019-01-24T18:08:40.302Z,61.05
2019-01-24T18:11:10.243Z,61.77
2019-01-24T18:13:40.149Z,60.17
2019-01-24T18:16:09.979Z,61.02
2019-01-24T18:18:39.821Z,60.25
2019-01-24T18:21:09.691Z,60.10
2019-01-24T18:23:39.781Z,61.02
2019-01-24T18:26:09.679Z,60.40
2019-01-24T18:28:39.614Z,61.30
2019-01-24T18:31:09.877Z,61.13
2019-01-24T18:33:39.681Z,60.95
2019-01-24T18:36:10.601Z,60.33
2019-01-24T18:38:40.578Z,59.95
2019-01-24T18:41:10.447Z,61.60
2019-01-24T18:43:40.440Z,61.48
2019-01-24T18:46:10.329Z,60.43
2019-01-24T18:48:40.376Z,59.75
2019-01-24T18:51:10.247Z,61.05
2019-01-24T18:53:40.082Z,61.02
2019-01-24T18:56:10.005Z,59.77
2019-01-24T18:58:39.921Z,60.88
2019-01-24T19:01:10.141Z,60.95
2019-01-24T19:03:40.457Z,61.02
2019-01-24T19:06:10.563Z,61.57
2019-01-24T19:08:45.891Z,59.30
2019-01-24T19:11:12.226Z,60.67
2019-01-24T19:13:42.225Z,60.40
2019-01-24T19:16:12.426Z,60.05
2019-01-24T19:18:42.351Z,61.43
2019-01-24T19:21:12.452Z,61.00
2019-01-24T19:23:42.640Z,61.15
2019-01-24T19:26:12.938Z,62.55
2019-01-24T19:28:43.126Z,60.90
2019-01-24T19:31:13.196Z,59.98
2019-01-24T19:33:43.156Z,59.45
2019-01-24T19:36:14.404Z,61.02
2019-01-24T19:38:44.347Z,59.38
2019-01-24T19:41:14.702Z,60.75
2019-01-24T19:43:44.541Z,61.23
2019-01-24T19:46:15.087Z,60.90
2019-01-24T19:48:45.534Z,59.93
2019-01-24T19:51:15.608Z,60.90
2019-01-24T19:53:46.100Z,58.23
2019-01-24T19:56:16.261Z,60.80
2019-01-24T19:58:46.255Z,59.40
2019-01-24T20:01:16.323Z,59.85
2019-01-24T20:03:46.430Z,62.10
2019-01-24T20:06:16.513Z,59.77
2019-01-24T20:08:46.670Z,58.17
2019-01-24T20:11:16.749Z,59.08
2019-01-24T20:13:46.677Z,57.62
2019-01-24T20:16:16.856Z,58.63
2019-01-24T20:18:46.892Z,60.08
2019-01-24T20:21:17.302Z,59.08
2019-01-24T20:23:47.405Z,56.10
2019-01-24T20:26:17.430Z,57.35
2019-01-24T20:28:47.633Z,57.53
2019-01-24T20:31:18.158Z,57.53
2019-01-24T20:33:48.386Z,56.53
2019-01-24T20:36:18.343Z,56.55
2019-01-24T20:38:48.480Z,56.42
2019-01-24T20:41:18.534Z,56.55
2019-01-24T20:43:48.503Z,57.13
2019-01-24T20:46:18.439Z,57.67
2019-01-24T20:48:48.314Z,54.95
2019-01-24T20:51:18.273Z,56.55
2019-01-24T20:53:48.128Z,55.10
2019-01-24T20:56:18.085Z,55.00
2019-01-24T20:58:47.924Z,54.70
2019-01-24T21:01:17.933Z,54.75
2019-01-24T21:03:47.791Z,53.75
2019-01-24T21:06:17.621Z,53.58
2019-01-24T21:08:47.575Z,53.87
2019-01-24T21:11:17.409Z,51.75
2019-01-24T21:13:47.218Z,53.00
2019-01-24T21:16:17.131Z,50.70
2019-01-24T21:18:46.936Z,51.02
2019-01-24T21:21:16.848Z,47.25
2019-01-24T21:23:46.738Z,36.20
2019-01-24T21:26:16.697Z,34.70
2019-01-24T21:28:46.579Z,35.88
2019-01-24T21:31:16.498Z,35.05
2019-01-24T21:33:46.313Z,33.33
2019-01-24T21:36:16.167Z,33.83
2019-01-24T21:38:45.962Z,32.70
2019-01-24T21:41:15.793Z,33.50
2019-01-24T21:43:45.702Z,34.78
2019-01-24T21:46:15.588Z,33.33
2019-01-24T21:48:45.479Z,33.95
2019-01-24T21:51:15.682Z,34.38
2019-01-24T21:53:45.551Z,35.25
2019-01-24T21:56:16.328Z,35.43
2019-01-24T21:58:46.123Z,33.92
2019-01-24T22:01:15.998Z,34.27
2019-01-24T22:03:45.834Z,34.08
2019-01-24T22:06:15.684Z,34.75
2019-01-24T22:08:45.615Z,33.53
2019-01-24T22:11:15.576Z,34.90
2019-01-24T22:13:45.350Z,34.60
2019-01-24T22:16:15.309Z,35.28
2019-01-24T22:18:45.122Z,34.23
2019-01-24T22:21:15.070Z,33.38
2019-01-24T22:23:44.882Z,34.67
2019-01-24T22:26:14.682Z,34.20
2019-01-24T22:28:44.539Z,33.80
2019-01-24T22:31:14.440Z,34.08
2019-01-24T22:33:44.352Z,33.83
2019-01-24T22:36:14.253Z,32.50
2019-01-24T22:38:44.193Z,33.70
2019-01-24T22:41:13.986Z,34.23
2019-01-24T22:43:43.910Z,33.67
2019-01-24T22:46:13.688Z,35.33
2019-01-24T22:48:43.505Z,34.58
2019-01-24T22:51:14.413Z,34.60
2019-01-24T22:53:44.331Z,34.55
2019-01-24T22:56:14.267Z,35.52
2019-01-24T22:58:44.074Z,34.13
2019-01-24T23:01:33.726Z,33.58
2019-01-24T23:04:15.416Z,34.37
2019-01-24T23:06:45.323Z,34.83
2019-01-24T23:09:16.902Z,33.53
2019-01-24T23:11:46.786Z,34.00
2019-01-24T23:14:16.650Z,34.03
2019-01-24T23:16:46.443Z,33.70
2019-01-24T23:19:16.323Z,33.15
2019-01-24T23:21:46.159Z,34.55
2019-01-24T23:24:16.018Z,33.58
2019-01-24T23:26:45.819Z,35.87
2019-01-24T23:29:15.659Z,34.33
2019-01-24T23:31:45.498Z,34.43
2019-01-24T23:34:16.552Z,32.90
2019-01-24T23:36:46.510Z,34.25
2019-01-24T23:39:16.361Z,34.15
2019-01-24T23:41:46.225Z,34.53
2019-01-24T23:44:16.035Z,35.15
2019-01-24T23:46:45.866Z,34.58
2019-01-24T23:49:15.724Z,34.78
2019-01-24T23:51:45.517Z,32.75
2019-01-24T23:54:15.347Z,35.03
2019-01-24T23:56:45.223Z,34.92
2019-01-24T23:59:15.062Z,35.73
